sensor_id;sensor_type;location;lat;lon;timestamp;temperature;humidity
32348;DHT22;18821;44.800;10.326;2023-07-31T00:04:15;24.60;99.90
32348;DHT22;18821;44.800;10.326;2023-07-31T00:06:41;25.50;99.90
32348;DHT22;18821;44.800;10.326;2023-07-31T00:09:07;25.10;99.90
32348;DHT22;18821;44.800;10.326;2023-07-31T00:11:33;24.70;99.90
32348;DHT22;18821;44.800;10.326;2023-07-31T00:13:59;24.70;99.90
32348;DHT22;18821;44.800;10.326;2023-07-31T00:16:25;25.50;99.90
32348;DHT22;18821;44.800;10.326;2023-07-31T00:18:51;25.10;99.90
32348;DHT22;18821;44.800;10.326;2023-07-31T00:21:17;25.30;99.90
32348;DHT22;18821;44.800;10.326;2023-07-31T00:23:43;25.50;99.90
32348;DHT22;18821;44.800;10.326;2023-07-31T00:28:35;24.70;99.90
32348;DHT22;18821;44.800;10.326;2023-07-31T00:33:30;24.20;99.90
32348;DHT22;18821;44.800;10.326;2023-07-31T00:35:57;25.20;99.90
32348;DHT22;18821;44.800;10.326;2023-07-31T00:38:23;24.20;99.90
32348;DHT22;18821;44.800;10.326;2023-07-31T00:40:49;25.00;99.90
32348;DHT22;18821;44.800;10.326;2023-07-31T00:43:15;25.20;99.90
32348;DHT22;18821;44.800;10.326;2023-07-31T00:45:41;25.00;99.90
32348;DHT22;18821;44.800;10.326;2023-07-31T00:48:07;25.00;99.90
32348;DHT22;18821;44.800;10.326;2023-07-31T00:50:35;24.70;99.90
32348;DHT22;18821;44.800;10.326;2023-07-31T00:53:01;24.20;99.90
32348;DHT22;18821;44.800;10.326;2023-07-31T00:55:27;25.30;99.90
32348;DHT22;18821;44.800;10.326;2023-07-31T00:57:53;25.40;99.90
32348;DHT22;18821;44.800;10.326;2023-07-31T01:00:21;24.30;99.90
32348;DHT22;18821;44.800;10.326;2023-07-31T01:02:49;25.30;99.90
32348;DHT22;18821;44.800;10.326;2023-07-31T01:07:51;25.00;99.90
32348;DHT22;18821;44.800;10.326;2023-07-31T01:10:23;24.90;99.90
32348;DHT22;18821;44.800;10.326;2023-07-31T01:12:53;24.00;99.90
32348;DHT22;18821;44.800;10.326;2023-07-31T01:15:21;24.60;99.90
32348;DHT22;18821;44.800;10.326;2023-07-31T01:17:47;25.30;99.90
32348;DHT22;18821;44.800;10.326;2023-07-31T01:20:23;24.90;99.90
32348;DHT22;18821;44.800;10.326;2023-07-31T01:29:01;24.70;99.90
32348;DHT22;18821;44.800;10.326;2023-07-31T01:31:30;24.10;99.90
32348;DHT22;18821;44.800;10.326;2023-07-31T01:34:02;24.20;99.90
32348;DHT22;18821;44.800;10.326;2023-07-31T01:36:30;24.70;99.90
32348;DHT22;18821;44.800;10.326;2023-07-31T01:39:01;24.20;99.90
32348;DHT22;18821;44.800;10.326;2023-07-31T01:41:27;24.40;99.90
32348;DHT22;18821;44.800;10.326;2023-07-31T01:43:53;23.90;99.90
32348;DHT22;18821;44.800;10.326;2023-07-31T01:46:19;24.20;99.90
32348;DHT22;18821;44.800;10.326;2023-07-31T01:48:45;24.30;99.90
32348;DHT22;18821;44.800;10.326;2023-07-31T01:53:37;24.50;99.90
32348;DHT22;18821;44.800;10.326;2023-07-31T01:56:03;23.70;99.90
32348;DHT22;18821;44.800;10.326;2023-07-31T01:58:30;24.60;99.90
32348;DHT22;18821;44.800;10.326;2023-07-31T02:00:56;24.90;99.90
32348;DHT22;18821;44.800;10.326;2023-07-31T02:03:22;24.40;99.90
32348;DHT22;18821;44.800;10.326;2023-07-31T02:05:49;24.60;99.90
32348;DHT22;18821;44.800;10.326;2023-07-31T02:08:16;24.70;99.90
32348;DHT22;18821;44.800;10.326;2023-07-31T02:10:42;23.40;99.90
32348;DHT22;18821;44.800;10.326;2023-07-31T02:13:08;24.20;99.90
32348;DHT22;18821;44.800;10.326;2023-07-31T02:15:34;24.50;99.90
32348;DHT22;18821;44.800;10.326;2023-07-31T02:18:01;23.90;99.90
32348;DHT22;18821;44.800;10.326;2023-07-31T02:20:27;24.30;99.90
32348;DHT22;18821;44.800;10.326;2023-07-31T02:22:53;24.00;99.90
32348;DHT22;18821;44.800;10.326;2023-07-31T02:25:20;23.20;99.90
32348;DHT22;18821;44.800;10.326;2023-07-31T02:27:46;23.40;99.90
32348;DHT22;18821;44.800;10.326;2023-07-31T02:30:14;24.00;99.90
32348;DHT22;18821;44.800;10.326;2023-07-31T02:32:39;24.40;99.90
32348;DHT22;18821;44.800;10.326;2023-07-31T02:35:06;23.80;99.90
32348;DHT22;18821;44.800;10.326;2023-07-31T02:37:33;23.70;99.90
32348;DHT22;18821;44.800;10.326;2023-07-31T02:39:59;24.10;99.90
32348;DHT22;18821;44.800;10.326;2023-07-31T02:42:28;23.10;99.90
32348;DHT22;18821;44.800;10.326;2023-07-31T02:44:53;23.00;99.90
32348;DHT22;18821;44.800;10.326;2023-07-31T02:47:22;23.60;99.90
32348;DHT22;18821;44.800;10.326;2023-07-31T02:49:48;24.00;99.90
32348;DHT22;18821;44.800;10.326;2023-07-31T02:54:40;23.90;99.90
32348;DHT22;18821;44.800;10.326;2023-07-31T02:57:06;23.70;99.90
32348;DHT22;18821;44.800;10.326;2023-07-31T02:59:32;23.80;99.90
32348;DHT22;18821;44.800;10.326;2023-07-31T03:01:58;23.20;99.90
32348;DHT22;18821;44.800;10.326;2023-07-31T03:04:25;22.80;99.90
32348;DHT22;18821;44.800;10.326;2023-07-31T03:06:51;23.40;99.90
32348;DHT22;18821;44.800;10.326;2023-07-31T03:09:17;23.90;99.90
32348;DHT22;18821;44.800;10.326;2023-07-31T03:11:43;23.10;99.90
32348;DHT22;18821;44.800;10.326;2023-07-31T03:14:09;23.80;99.90
32348;DHT22;18821;44.800;10.326;2023-07-31T03:16:35;23.20;99.90
32348;DHT22;18821;44.800;10.326;2023-07-31T03:19:01;23.60;99.90
32348;DHT22;18821;44.800;10.326;2023-07-31T03:23:53;22.90;99.90
32348;DHT22;18821;44.800;10.326;2023-07-31T03:26:19;23.80;99.90
32348;DHT22;18821;44.800;10.326;2023-07-31T03:28:45;23.10;99.90
32348;DHT22;18821;44.800;10.326;2023-07-31T03:31:11;24.10;99.90
32348;DHT22;18821;44.800;10.326;2023-07-31T03:33:37;23.50;99.90
32348;DHT22;18821;44.800;10.326;2023-07-31T03:38:30;23.40;99.90
32348;DHT22;18821;44.800;10.326;2023-07-31T03:40:55;23.90;99.90
32348;DHT22;18821;44.800;10.326;2023-07-31T03:43:22;23.40;99.90
32348;DHT22;18821;44.800;10.326;2023-07-31T03:45:47;23.30;99.90
32348;DHT22;18821;44.800;10.326;2023-07-31T03:48:14;23.90;99.90
32348;DHT22;18821;44.800;10.326;2023-07-31T03:50:41;23.70;99.90
32348;DHT22;18821;44.800;10.326;2023-07-31T03:53:07;23.70;99.90
32348;DHT22;18821;44.800;10.326;2023-07-31T03:57:59;23.60;99.90
32348;DHT22;18821;44.800;10.326;2023-07-31T04:00:26;22.80;99.90
32348;DHT22;18821;44.800;10.326;2023-07-31T04:05:19;22.80;99.90
32348;DHT22;18821;44.800;10.326;2023-07-31T04:07:45;23.40;99.90
32348;DHT22;18821;44.800;10.326;2023-07-31T04:10:11;23.00;99.90
32348;DHT22;18821;44.800;10.326;2023-07-31T04:12:36;22.60;99.90
32348;DHT22;18821;44.800;10.326;2023-07-31T04:15:03;23.40;99.90
32348;DHT22;18821;44.800;10.326;2023-07-31T04:17:30;22.90;99.90
32348;DHT22;18821;44.800;10.326;2023-07-31T04:19:56;23.20;99.90
32348;DHT22;18821;44.800;10.326;2023-07-31T04:22:22;23.90;99.90
32348;DHT22;18821;44.800;10.326;2023-07-31T04:24:48;23.70;99.90
32348;DHT22;18821;44.800;10.326;2023-07-31T04:29:40;23.70;99.90
32348;DHT22;18821;44.800;10.326;2023-07-31T04:32:08;24.00;99.90
32348;DHT22;18821;44.800;10.326;2023-07-31T04:34:34;23.40;99.90
32348;DHT22;18821;44.800;10.326;2023-07-31T04:39:26;23.50;99.90
32348;DHT22;18821;44.800;10.326;2023-07-31T04:41:52;23.40;99.90
32348;DHT22;18821;44.800;10.326;2023-07-31T04:44:18;23.40;99.90
32348;DHT22;18821;44.800;10.326;2023-07-31T04:46:44;23.40;99.90
32348;DHT22;18821;44.800;10.326;2023-07-31T04:49:11;23.50;99.90
32348;DHT22;18821;44.800;10.326;2023-07-31T04:51:37;23.50;99.90
32348;DHT22;18821;44.800;10.326;2023-07-31T04:56:29;23.80;99.90
32348;DHT22;18821;44.800;10.326;2023-07-31T04:58:55;23.40;99.90
32348;DHT22;18821;44.800;10.326;2023-07-31T05:01:21;23.70;99.90
32348;DHT22;18821;44.800;10.326;2023-07-31T05:03:47;23.70;99.90
32348;DHT22;18821;44.800;10.326;2023-07-31T05:06:13;23.80;99.90
32348;DHT22;18821;44.800;10.326;2023-07-31T05:08:41;23.90;99.90
32348;DHT22;18821;44.800;10.326;2023-07-31T05:11:07;24.50;99.90
32348;DHT22;18821;44.800;10.326;2023-07-31T05:13:32;23.30;99.90
32348;DHT22;18821;44.800;10.326;2023-07-31T05:18:25;24.40;99.90
32348;DHT22;18821;44.800;10.326;2023-07-31T05:20:50;23.50;99.90
32348;DHT22;18821;44.800;10.326;2023-07-31T05:23:16;24.40;99.90
32348;DHT22;18821;44.800;10.326;2023-07-31T05:25:42;24.60;99.90
32348;DHT22;18821;44.800;10.326;2023-07-31T05:28:08;24.30;99.90
32348;DHT22;18821;44.800;10.326;2023-07-31T05:30:34;25.00;99.90
32348;DHT22;18821;44.800;10.326;2023-07-31T05:35:27;24.80;99.90
32348;DHT22;18821;44.800;10.326;2023-07-31T05:37:52;24.80;99.90
32348;DHT22;18821;44.800;10.326;2023-07-31T05:40:18;24.40;99.90
32348;DHT22;18821;44.800;10.326;2023-07-31T05:42:44;25.20;99.90
32348;DHT22;18821;44.800;10.326;2023-07-31T05:45:10;25.20;99.90
32348;DHT22;18821;44.800;10.326;2023-07-31T05:50:03;25.00;99.90
32348;DHT22;18821;44.800;10.326;2023-07-31T05:52:29;25.10;99.90
32348;DHT22;18821;44.800;10.326;2023-07-31T05:54:55;25.30;99.90
32348;DHT22;18821;44.800;10.326;2023-07-31T05:57:21;25.40;99.90
32348;DHT22;18821;44.800;10.326;2023-07-31T05:59:47;26.40;99.90
32348;DHT22;18821;44.800;10.326;2023-07-31T06:02:13;25.60;99.90
32348;DHT22;18821;44.800;10.326;2023-07-31T06:04:39;25.60;99.90
32348;DHT22;18821;44.800;10.326;2023-07-31T06:09:31;26.60;99.90
32348;DHT22;18821;44.800;10.326;2023-07-31T06:11:57;26.70;99.90
32348;DHT22;18821;44.800;10.326;2023-07-31T06:16:49;26.20;99.90
32348;DHT22;18821;44.800;10.326;2023-07-31T06:19:15;26.70;99.90
32348;DHT22;18821;44.800;10.326;2023-07-31T06:21:41;26.60;99.90
32348;DHT22;18821;44.800;10.326;2023-07-31T06:24:09;26.60;99.90
32348;DHT22;18821;44.800;10.326;2023-07-31T06:26:35;26.70;99.90
32348;DHT22;18821;44.800;10.326;2023-07-31T06:29:00;27.30;99.90
32348;DHT22;18821;44.800;10.326;2023-07-31T06:31:26;28.00;99.90
32348;DHT22;18821;44.800;10.326;2023-07-31T06:33:53;28.10;99.90
32348;DHT22;18821;44.800;10.326;2023-07-31T06:36:19;28.00;99.90
32348;DHT22;18821;44.800;10.326;2023-07-31T06:38:45;28.50;99.90
32348;DHT22;18821;44.800;10.326;2023-07-31T06:41:11;28.70;99.90
32348;DHT22;18821;44.800;10.326;2023-07-31T06:43:37;28.70;99.90
32348;DHT22;18821;44.800;10.326;2023-07-31T06:46:07;28.60;99.90
32348;DHT22;18821;44.800;10.326;2023-07-31T06:48:33;28.70;99.90
32348;DHT22;18821;44.800;10.326;2023-07-31T06:51:00;28.20;99.90
32348;DHT22;18821;44.800;10.326;2023-07-31T06:53:26;27.90;99.90
32348;DHT22;18821;44.800;10.326;2023-07-31T06:55:52;28.00;99.90
32348;DHT22;18821;44.800;10.326;2023-07-31T07:03:11;27.80;99.90
32348;DHT22;18821;44.800;10.326;2023-07-31T07:05:37;27.30;99.90
32348;DHT22;18821;44.800;10.326;2023-07-31T07:10:29;27.00;99.90
32348;DHT22;18821;44.800;10.326;2023-07-31T07:15:21;27.50;99.90
32348;DHT22;18821;44.800;10.326;2023-07-31T07:22:40;27.20;99.90
32348;DHT22;18821;44.800;10.326;2023-07-31T07:25:09;27.40;99.90
32348;DHT22;18821;44.800;10.326;2023-07-31T07:27:35;27.80;99.90
32348;DHT22;18821;44.800;10.326;2023-07-31T07:30:01;27.60;99.90
32348;DHT22;18821;44.800;10.326;2023-07-31T07:32:27;27.50;99.90
32348;DHT22;18821;44.800;10.326;2023-07-31T07:34:53;27.20;99.90
32348;DHT22;18821;44.800;10.326;2023-07-31T07:37:19;27.80;99.90
32348;DHT22;18821;44.800;10.326;2023-07-31T07:42:14;27.50;99.90
32348;DHT22;18821;44.800;10.326;2023-07-31T07:44:40;27.60;99.90
32348;DHT22;18821;44.800;10.326;2023-07-31T07:47:06;27.10;99.90
32348;DHT22;18821;44.800;10.326;2023-07-31T07:49:36;27.80;99.90
32348;DHT22;18821;44.800;10.326;2023-07-31T07:52:03;27.70;99.90
32348;DHT22;18821;44.800;10.326;2023-07-31T07:54:29;27.80;99.90
32348;DHT22;18821;44.800;10.326;2023-07-31T07:56:55;27.80;99.90
32348;DHT22;18821;44.800;10.326;2023-07-31T07:59:21;27.80;99.90
32348;DHT22;18821;44.800;10.326;2023-07-31T08:01:47;27.80;99.90
32348;DHT22;18821;44.800;10.326;2023-07-31T08:04:13;27.60;99.90
32348;DHT22;18821;44.800;10.326;2023-07-31T08:06:39;27.50;99.90
32348;DHT22;18821;44.800;10.326;2023-07-31T08:09:05;27.70;99.90
32348;DHT22;18821;44.800;10.326;2023-07-31T08:11:32;28.00;99.90
32348;DHT22;18821;44.800;10.326;2023-07-31T08:13:59;28.50;99.90
32348;DHT22;18821;44.800;10.326;2023-07-31T08:16:25;27.90;99.90
32348;DHT22;18821;44.800;10.326;2023-07-31T08:21:17;27.60;99.90
32348;DHT22;18821;44.800;10.326;2023-07-31T08:23:43;28.20;99.90
32348;DHT22;18821;44.800;10.326;2023-07-31T08:26:15;28.00;99.90
32348;DHT22;18821;44.800;10.326;2023-07-31T08:31:08;28.40;99.90
32348;DHT22;18821;44.800;10.326;2023-07-31T08:33:34;28.40;99.90
32348;DHT22;18821;44.800;10.326;2023-07-31T08:36:00;28.20;99.90
32348;DHT22;18821;44.800;10.326;2023-07-31T08:38:27;28.30;99.90
32348;DHT22;18821;44.800;10.326;2023-07-31T08:40:57;28.50;99.90
32348;DHT22;18821;44.800;10.326;2023-07-31T08:43:25;28.50;99.90
32348;DHT22;18821;44.800;10.326;2023-07-31T08:45:52;28.90;99.90
32348;DHT22;18821;44.800;10.326;2023-07-31T08:48:20;28.90;99.90
32348;DHT22;18821;44.800;10.326;2023-07-31T08:53:13;28.50;99.90
32348;DHT22;18821;44.800;10.326;2023-07-31T08:55:40;28.70;99.90
32348;DHT22;18821;44.800;10.326;2023-07-31T09:00:32;28.70;99.90
32348;DHT22;18821;44.800;10.326;2023-07-31T09:03:03;29.00;99.90
32348;DHT22;18821;44.800;10.326;2023-07-31T09:05:33;28.80;99.90
32348;DHT22;18821;44.800;10.326;2023-07-31T09:08:02;28.70;99.90
32348;DHT22;18821;44.800;10.326;2023-07-31T09:10:29;29.00;99.90
32348;DHT22;18821;44.800;10.326;2023-07-31T09:12:56;28.90;99.90
32348;DHT22;18821;44.800;10.326;2023-07-31T09:15:22;28.80;99.90
32348;DHT22;18821;44.800;10.326;2023-07-31T09:18:01;28.80;99.90
32348;DHT22;18821;44.800;10.326;2023-07-31T09:20:27;28.80;99.90
32348;DHT22;18821;44.800;10.326;2023-07-31T09:22:55;28.90;99.90
32348;DHT22;18821;44.800;10.326;2023-07-31T09:25:25;29.00;99.90
32348;DHT22;18821;44.800;10.326;2023-07-31T09:27:54;28.80;99.90
32348;DHT22;18821;44.800;10.326;2023-07-31T09:30:21;29.10;99.90
32348;DHT22;18821;44.800;10.326;2023-07-31T09:32:49;29.30;99.90
32348;DHT22;18821;44.800;10.326;2023-07-31T09:35:22;29.40;99.90
32348;DHT22;18821;44.800;10.326;2023-07-31T09:37:53;29.30;99.90
32348;DHT22;18821;44.800;10.326;2023-07-31T09:40:46;29.40;99.90
32348;DHT22;18821;44.800;10.326;2023-07-31T09:43:17;29.50;99.90
32348;DHT22;18821;44.800;10.326;2023-07-31T09:45:44;29.60;99.90
32348;DHT22;18821;44.800;10.326;2023-07-31T09:48:15;29.60;99.90
32348;DHT22;18821;44.800;10.326;2023-07-31T09:50:46;29.90;99.90
32348;DHT22;18821;44.800;10.326;2023-07-31T09:53:13;30.70;99.90
32348;DHT22;18821;44.800;10.326;2023-07-31T09:55:40;30.00;99.90
32348;DHT22;18821;44.800;10.326;2023-07-31T09:58:09;29.80;99.90
32348;DHT22;18821;44.800;10.326;2023-07-31T10:00:35;29.80;99.90
32348;DHT22;18821;44.800;10.326;2023-07-31T10:03:07;30.00;99.90
32348;DHT22;18821;44.800;10.326;2023-07-31T10:05:42;30.10;99.90
32348;DHT22;18821;44.800;10.326;2023-07-31T10:08:14;30.20;99.90
32348;DHT22;18821;44.800;10.326;2023-07-31T10:10:45;30.10;99.90
32348;DHT22;18821;44.800;10.326;2023-07-31T10:13:12;30.20;99.90
32348;DHT22;18821;44.800;10.326;2023-07-31T10:18:07;30.00;99.90
32348;DHT22;18821;44.800;10.326;2023-07-31T10:20:33;30.10;99.90
32348;DHT22;18821;44.800;10.326;2023-07-31T10:23:00;29.80;99.90
32348;DHT22;18821;44.800;10.326;2023-07-31T10:25:27;29.80;99.90
32348;DHT22;18821;44.800;10.326;2023-07-31T10:27:54;29.70;99.90
32348;DHT22;18821;44.800;10.326;2023-07-31T10:30:27;29.70;99.90
32348;DHT22;18821;44.800;10.326;2023-07-31T10:32:55;30.00;99.90
32348;DHT22;18821;44.800;10.326;2023-07-31T10:35:22;30.20;99.90
32348;DHT22;18821;44.800;10.326;2023-07-31T10:37:48;30.70;99.90
32348;DHT22;18821;44.800;10.326;2023-07-31T10:40:26;30.40;99.90
32348;DHT22;18821;44.800;10.326;2023-07-31T10:42:56;30.50;99.90
32348;DHT22;18821;44.800;10.326;2023-07-31T10:48:07;30.50;99.90
32348;DHT22;18821;44.800;10.326;2023-07-31T10:50:38;30.50;99.90
32348;DHT22;18821;44.800;10.326;2023-07-31T10:53:25;30.80;99.90
32348;DHT22;18821;44.800;10.326;2023-07-31T10:55:52;30.80;99.90
32348;DHT22;18821;44.800;10.326;2023-07-31T10:58:20;30.60;99.90
32348;DHT22;18821;44.800;10.326;2023-07-31T11:00:47;30.80;99.90
32348;DHT22;18821;44.800;10.326;2023-07-31T11:03:19;30.80;99.90
32348;DHT22;18821;44.800;10.326;2023-07-31T11:06:00;30.80;99.90
32348;DHT22;18821;44.800;10.326;2023-07-31T11:08:30;30.80;99.90
32348;DHT22;18821;44.800;10.326;2023-07-31T11:13:44;31.10;99.90
32348;DHT22;18821;44.800;10.326;2023-07-31T11:16:12;31.30;99.90
32348;DHT22;18821;44.800;10.326;2023-07-31T11:18:40;31.40;99.90
32348;DHT22;18821;44.800;10.326;2023-07-31T11:21:07;31.40;99.90
32348;DHT22;18821;44.800;10.326;2023-07-31T11:23:33;31.20;99.90
32348;DHT22;18821;44.800;10.326;2023-07-31T11:26:00;30.90;99.90
32348;DHT22;18821;44.800;10.326;2023-07-31T11:28:26;31.10;99.90
32348;DHT22;18821;44.800;10.326;2023-07-31T11:30:52;30.90;99.90
32348;DHT22;18821;44.800;10.326;2023-07-31T11:33:18;31.00;99.90
32348;DHT22;18821;44.800;10.326;2023-07-31T11:35:47;31.20;99.90
32348;DHT22;18821;44.800;10.326;2023-07-31T11:38:28;31.20;99.90
32348;DHT22;18821;44.800;10.326;2023-07-31T11:40:56;31.60;99.90
32348;DHT22;18821;44.800;10.326;2023-07-31T11:43:23;31.50;99.90
32348;DHT22;18821;44.800;10.326;2023-07-31T11:45:58;31.60;99.90
32348;DHT22;18821;44.800;10.326;2023-07-31T11:48:26;31.60;99.90
32348;DHT22;18821;44.800;10.326;2023-07-31T11:50:58;31.70;99.90
32348;DHT22;18821;44.800;10.326;2023-07-31T11:53:43;31.70;99.90
32348;DHT22;18821;44.800;10.326;2023-07-31T11:56:13;31.70;99.90
32348;DHT22;18821;44.800;10.326;2023-07-31T11:58:39;31.60;99.90
32348;DHT22;18821;44.800;10.326;2023-07-31T12:01:06;31.80;99.90
32348;DHT22;18821;44.800;10.326;2023-07-31T12:03:33;31.70;99.90
32348;DHT22;18821;44.800;10.326;2023-07-31T12:06:00;31.70;99.90
32348;DHT22;18821;44.800;10.326;2023-07-31T12:08:26;31.70;99.90
32348;DHT22;18821;44.800;10.326;2023-07-31T12:10:53;31.80;99.90
32348;DHT22;18821;44.800;10.326;2023-07-31T12:13:24;31.80;99.90
32348;DHT22;18821;44.800;10.326;2023-07-31T12:15:58;32.00;99.90
32348;DHT22;18821;44.800;10.326;2023-07-31T12:18:26;32.10;99.90
32348;DHT22;18821;44.800;10.326;2023-07-31T12:20:57;32.10;99.90
32348;DHT22;18821;44.800;10.326;2023-07-31T12:23:32;32.20;99.90
32348;DHT22;18821;44.800;10.326;2023-07-31T12:26:12;32.10;99.90
32348;DHT22;18821;44.800;10.326;2023-07-31T12:28:45;32.10;99.90
32348;DHT22;18821;44.800;10.326;2023-07-31T12:31:14;31.90;99.90
32348;DHT22;18821;44.800;10.326;2023-07-31T12:33:41;31.50;99.90
32348;DHT22;18821;44.800;10.326;2023-07-31T12:36:21;32.20;99.90
32348;DHT22;18821;44.800;10.326;2023-07-31T12:38:48;32.10;99.90
32348;DHT22;18821;44.800;10.326;2023-07-31T12:41:15;32.40;99.90
32348;DHT22;18821;44.800;10.326;2023-07-31T12:43:43;32.60;99.90
32348;DHT22;18821;44.800;10.326;2023-07-31T12:46:09;32.60;99.90
32348;DHT22;18821;44.800;10.326;2023-07-31T12:48:37;32.50;99.90
32348;DHT22;18821;44.800;10.326;2023-07-31T12:51:03;32.60;99.90
32348;DHT22;18821;44.800;10.326;2023-07-31T12:53:29;32.40;99.90
32348;DHT22;18821;44.800;10.326;2023-07-31T12:55:56;32.30;99.90
32348;DHT22;18821;44.800;10.326;2023-07-31T12:58:22;32.10;99.90
32348;DHT22;18821;44.800;10.326;2023-07-31T13:00:48;32.30;99.90
32348;DHT22;18821;44.800;10.326;2023-07-31T13:03:14;32.50;99.90
32348;DHT22;18821;44.800;10.326;2023-07-31T13:08:06;32.50;99.90
32348;DHT22;18821;44.800;10.326;2023-07-31T13:10:33;32.30;99.90
32348;DHT22;18821;44.800;10.326;2023-07-31T13:12:59;32.00;99.90
32348;DHT22;18821;44.800;10.326;2023-07-31T13:15:25;32.40;99.90
32348;DHT22;18821;44.800;10.326;2023-07-31T13:20:17;32.60;99.90
32348;DHT22;18821;44.800;10.326;2023-07-31T13:22:43;32.30;99.90
32348;DHT22;18821;44.800;10.326;2023-07-31T13:25:12;32.70;99.90
32348;DHT22;18821;44.800;10.326;2023-07-31T13:27:38;32.60;99.90
32348;DHT22;18821;44.800;10.326;2023-07-31T13:30:04;32.70;99.90
32348;DHT22;18821;44.800;10.326;2023-07-31T13:32:30;32.60;99.90
32348;DHT22;18821;44.800;10.326;2023-07-31T13:34:56;32.70;99.90
32348;DHT22;18821;44.800;10.326;2023-07-31T13:37:22;32.60;99.90
32348;DHT22;18821;44.800;10.326;2023-07-31T13:39:48;32.60;99.90
32348;DHT22;18821;44.800;10.326;2023-07-31T13:42:14;32.70;99.90
32348;DHT22;18821;44.800;10.326;2023-07-31T13:44:41;32.60;99.90
32348;DHT22;18821;44.800;10.326;2023-07-31T13:47:08;32.40;99.90
32348;DHT22;18821;44.800;10.326;2023-07-31T13:49:34;32.40;99.90
32348;DHT22;18821;44.800;10.326;2023-07-31T13:52:02;32.40;99.90
32348;DHT22;18821;44.800;10.326;2023-07-31T13:54:28;32.40;99.90
32348;DHT22;18821;44.800;10.326;2023-07-31T13:56:54;32.40;99.90
32348;DHT22;18821;44.800;10.326;2023-07-31T13:59:20;32.60;99.90
32348;DHT22;18821;44.800;10.326;2023-07-31T14:01:47;32.80;99.90
32348;DHT22;18821;44.800;10.326;2023-07-31T14:04:13;32.80;99.90
32348;DHT22;18821;44.800;10.326;2023-07-31T14:06:39;32.70;99.90
32348;DHT22;18821;44.800;10.326;2023-07-31T14:09:05;32.70;99.90
32348;DHT22;18821;44.800;10.326;2023-07-31T14:11:32;32.60;99.90
32348;DHT22;18821;44.800;10.326;2023-07-31T14:13:58;32.10;99.90
32348;DHT22;18821;44.800;10.326;2023-07-31T14:16:24;32.30;99.90
32348;DHT22;18821;44.800;10.326;2023-07-31T14:18:50;32.40;99.90
32348;DHT22;18821;44.800;10.326;2023-07-31T14:21:16;32.70;99.90
32348;DHT22;18821;44.800;10.326;2023-07-31T14:23:42;32.40;99.90
32348;DHT22;18821;44.800;10.326;2023-07-31T14:26:08;32.20;99.90
32348;DHT22;18821;44.800;10.326;2023-07-31T14:28:34;32.30;99.90
32348;DHT22;18821;44.800;10.326;2023-07-31T14:31:00;32.60;99.90
32348;DHT22;18821;44.800;10.326;2023-07-31T14:33:26;32.70;99.90
32348;DHT22;18821;44.800;10.326;2023-07-31T14:35:52;32.90;99.90
32348;DHT22;18821;44.800;10.326;2023-07-31T14:38:18;33.00;99.90
32348;DHT22;18821;44.800;10.326;2023-07-31T14:40:44;33.00;99.90
32348;DHT22;18821;44.800;10.326;2023-07-31T14:43:11;32.90;99.90
32348;DHT22;18821;44.800;10.326;2023-07-31T14:45:36;32.90;99.90
32348;DHT22;18821;44.800;10.326;2023-07-31T14:48:02;33.00;99.90
32348;DHT22;18821;44.800;10.326;2023-07-31T14:50:28;32.80;99.90
32348;DHT22;18821;44.800;10.326;2023-07-31T14:52:54;32.70;99.90
32348;DHT22;18821;44.800;10.326;2023-07-31T14:55:20;33.00;99.90
32348;DHT22;18821;44.800;10.326;2023-07-31T14:57:46;33.10;99.90
32348;DHT22;18821;44.800;10.326;2023-07-31T15:00:13;32.60;99.90
32348;DHT22;18821;44.800;10.326;2023-07-31T15:02:39;32.30;99.90
32348;DHT22;18821;44.800;10.326;2023-07-31T15:05:06;32.50;99.90
32348;DHT22;18821;44.800;10.326;2023-07-31T15:07:33;32.60;99.90
32348;DHT22;18821;44.800;10.326;2023-07-31T15:09:59;32.70;99.90
32348;DHT22;18821;44.800;10.326;2023-07-31T15:12:26;32.80;99.90
32348;DHT22;18821;44.800;10.326;2023-07-31T15:14:52;33.00;99.90
32348;DHT22;18821;44.800;10.326;2023-07-31T15:17:18;33.10;99.90
32348;DHT22;18821;44.800;10.326;2023-07-31T15:19:44;33.10;99.90
32348;DHT22;18821;44.800;10.326;2023-07-31T15:22:10;33.20;99.90
32348;DHT22;18821;44.800;10.326;2023-07-31T15:24:36;33.20;99.90
32348;DHT22;18821;44.800;10.326;2023-07-31T15:27:02;33.20;99.90
32348;DHT22;18821;44.800;10.326;2023-07-31T15:29:29;33.20;99.90
32348;DHT22;18821;44.800;10.326;2023-07-31T15:31:55;33.20;99.90
32348;DHT22;18821;44.800;10.326;2023-07-31T15:34:22;33.10;99.90
32348;DHT22;18821;44.800;10.326;2023-07-31T15:36:48;33.20;99.90
32348;DHT22;18821;44.800;10.326;2023-07-31T15:39:14;32.90;99.90
32348;DHT22;18821;44.800;10.326;2023-07-31T15:41:41;32.80;99.90
32348;DHT22;18821;44.800;10.326;2023-07-31T15:44:07;32.70;99.90
32348;DHT22;18821;44.800;10.326;2023-07-31T15:46:33;32.60;99.90
32348;DHT22;18821;44.800;10.326;2023-07-31T15:48:59;32.60;99.90
32348;DHT22;18821;44.800;10.326;2023-07-31T15:51:26;32.40;99.90
32348;DHT22;18821;44.800;10.326;2023-07-31T15:53:52;32.40;99.90
32348;DHT22;18821;44.800;10.326;2023-07-31T15:56:19;32.70;99.90
32348;DHT22;18821;44.800;10.326;2023-07-31T15:58:45;32.50;99.90
32348;DHT22;18821;44.800;10.326;2023-07-31T16:01:11;32.40;99.90
32348;DHT22;18821;44.800;10.326;2023-07-31T16:03:37;32.40;99.90
32348;DHT22;18821;44.800;10.326;2023-07-31T16:08:29;32.10;99.90
32348;DHT22;18821;44.800;10.326;2023-07-31T16:10:55;32.70;99.90
32348;DHT22;18821;44.800;10.326;2023-07-31T16:13:22;32.40;99.90
32348;DHT22;18821;44.800;10.326;2023-07-31T16:15:48;32.40;99.90
32348;DHT22;18821;44.800;10.326;2023-07-31T16:18:13;32.40;99.90
32348;DHT22;18821;44.800;10.326;2023-07-31T16:20:40;32.30;99.90
32348;DHT22;18821;44.800;10.326;2023-07-31T16:23:06;32.20;99.90
32348;DHT22;18821;44.800;10.326;2023-07-31T16:25:33;32.10;99.90
32348;DHT22;18821;44.800;10.326;2023-07-31T16:27:59;32.20;99.90
32348;DHT22;18821;44.800;10.326;2023-07-31T16:30:25;32.10;99.90
32348;DHT22;18821;44.800;10.326;2023-07-31T16:32:52;32.20;99.90
32348;DHT22;18821;44.800;10.326;2023-07-31T16:35:18;32.10;99.90
32348;DHT22;18821;44.800;10.326;2023-07-31T16:37:44;32.10;99.90
32348;DHT22;18821;44.800;10.326;2023-07-31T16:40:12;32.00;99.90
32348;DHT22;18821;44.800;10.326;2023-07-31T16:42:39;32.00;99.90
32348;DHT22;18821;44.800;10.326;2023-07-31T16:45:06;31.90;99.90
32348;DHT22;18821;44.800;10.326;2023-07-31T16:47:32;31.80;99.90